createdAt,value
2019-03-27T00:00:39.852Z,77.68
2019-03-27T00:03:54.141Z,77.59
2019-03-27T00:07:08.562Z,77.40
2019-03-27T00:10:22.573Z,77.35
2019-03-27T00:13:36.713Z,77.40
2019-03-27T00:16:50.712Z,77.86
2019-03-27T00:20:06.254Z,77.88
2019-03-27T00:23:20.603Z,78.29
2019-03-27T00:26:34.727Z,78.18
2019-03-27T00:29:48.755Z,78.10
2019-03-27T00:33:02.918Z,77.85
2019-03-27T00:36:16.941Z,77.59
2019-03-27T00:39:30.969Z,77.45
2019-03-27T00:42:45.365Z,77.61
2019-03-27T00:45:59.463Z,77.83
2019-03-27T00:49:13.527Z,77.60
2019-03-27T00:52:27.565Z,78.06
2019-03-27T00:55:41.700Z,78.37
2019-03-27T00:58:56.004Z,78.43
2019-03-27T01:02:10.223Z,78.25
2019-03-27T01:05:24.354Z,79.39
2019-03-27T01:08:38.588Z,80.20
2019-03-27T01:11:52.698Z,80.28
2019-03-27T01:15:07.151Z,80.39
2019-03-27T01:18:21.275Z,79.98
2019-03-27T01:21:35.284Z,79.55
2019-03-27T01:24:49.313Z,79.66
2019-03-27T01:28:03.428Z,79.75
2019-03-27T01:31:17.479Z,79.59
2019-03-27T01:34:31.505Z,79.97
2019-03-27T01:37:45.619Z,80.19
2019-03-27T01:40:59.643Z,80.08
2019-03-27T01:44:13.661Z,79.63
2019-03-27T01:47:27.712Z,79.77
2019-03-27T01:50:42.142Z,79.87
2019-03-27T01:53:56.399Z,80.20
2019-03-27T01:57:10.670Z,80.50
2019-03-27T02:00:24.710Z,80.85
2019-03-27T02:03:38.691Z,80.93
2019-03-27T02:06:52.811Z,81.32
2019-03-27T02:10:07.948Z,80.98
2019-03-27T02:13:22.059Z,80.85
2019-03-27T02:16:36.423Z,81.02
2019-03-27T02:19:50.551Z,81.25
2019-03-27T02:23:04.959Z,81.51
2019-03-27T02:26:18.983Z,81.38
2019-03-27T02:29:32.996Z,81.00
2019-03-27T02:32:47.023Z,81.11
2019-03-27T02:36:01.043Z,81.17
2019-03-27T02:39:15.067Z,81.21
2019-03-27T02:42:29.403Z,81.40
2019-03-27T02:45:43.443Z,81.55
2019-03-27T02:48:57.581Z,81.32
2019-03-27T02:52:12.555Z,81.16
2019-03-27T02:55:26.585Z,81.04
2019-03-27T02:58:40.603Z,81.46
2019-03-27T03:01:54.599Z,81.11
2019-03-27T03:05:09.071Z,80.79
2019-03-27T03:08:23.188Z,80.67
2019-03-27T03:11:37.308Z,80.63
2019-03-27T03:14:51.314Z,80.34
2019-03-27T03:18:05.801Z,80.92
2019-03-27T03:21:19.875Z,81.05
2019-03-27T03:24:33.889Z,81.27
2019-03-27T03:27:47.899Z,81.65
2019-03-27T03:31:02.534Z,81.71
2019-03-27T03:34:16.605Z,80.84
2019-03-27T03:37:30.629Z,81.06
2019-03-27T03:40:44.949Z,80.68
2019-03-27T03:43:58.955Z,80.60
2019-03-27T03:47:13.105Z,80.65
2019-03-27T03:50:39.111Z,81.09
2019-03-27T03:53:53.204Z,81.23
2019-03-27T03:57:08.134Z,81.51
2019-03-27T04:00:22.556Z,82.18
2019-03-27T04:03:39.451Z,82.55
2019-03-27T04:06:53.456Z,82.56
2019-03-27T04:10:07.900Z,82.28
2019-03-27T04:13:21.892Z,81.70
2019-03-27T04:16:35.914Z,81.40
2019-03-27T04:19:50.086Z,81.97
2019-03-27T04:23:04.229Z,82.35
2019-03-27T04:26:18.389Z,82.55
2019-03-27T04:29:32.376Z,82.27
2019-03-27T04:32:46.414Z,82.54
2019-03-27T04:36:00.411Z,82.77
2019-03-27T04:39:14.397Z,82.50
2019-03-27T04:42:28.671Z,82.49
2019-03-27T04:45:42.700Z,82.60
2019-03-27T04:48:56.928Z,82.12
2019-03-27T04:52:10.944Z,82.03
2019-03-27T04:55:24.949Z,82.66
2019-03-27T04:58:39.050Z,82.87
2019-03-27T05:01:53.157Z,82.87
2019-03-27T05:05:07.440Z,82.92
2019-03-27T05:08:21.456Z,82.64
2019-03-27T05:11:35.557Z,82.65
2019-03-27T05:14:49.555Z,82.41
2019-03-27T05:18:03.780Z,82.27
2019-03-27T05:21:17.785Z,82.42
2019-03-27T05:24:31.788Z,82.37
2019-03-27T05:27:45.794Z,82.52
2019-03-27T05:30:59.814Z,82.40
2019-03-27T05:34:14.102Z,82.39
2019-03-27T05:37:28.135Z,82.67
2019-03-27T05:40:42.418Z,82.52
2019-03-27T05:43:56.687Z,82.51
2019-03-27T05:47:10.694Z,82.65
2019-03-27T05:50:24.816Z,82.49
2019-03-27T05:53:38.926Z,82.42
2019-03-27T05:56:52.936Z,82.46
2019-03-27T06:00:07.979Z,82.54
2019-03-27T06:03:21.977Z,82.65
2019-03-27T06:06:36.085Z,82.66
2019-03-27T06:09:50.340Z,82.70
2019-03-27T06:13:04.347Z,82.95
2019-03-27T06:16:18.357Z,82.88
2019-03-27T06:19:32.440Z,82.95
2019-03-27T06:22:46.451Z,83.20
2019-03-27T06:26:00.439Z,83.18
2019-03-27T06:29:15.817Z,83.57
2019-03-27T06:32:30.172Z,83.51
2019-03-27T06:35:44.296Z,83.58
2019-03-27T06:38:58.595Z,83.33
2019-03-27T06:42:12.605Z,83.35
2019-03-27T06:45:26.898Z,83.30
2019-03-27T06:48:41.195Z,83.22
2019-03-27T06:51:55.464Z,83.34
2019-03-27T06:55:09.563Z,83.10
2019-03-27T06:58:23.564Z,82.89
2019-03-27T07:01:37.676Z,82.66
2019-03-27T07:04:51.664Z,82.52
2019-03-27T07:08:05.812Z,82.32
2019-03-27T07:11:19.790Z,81.75
2019-03-27T07:14:34.231Z,81.60
2019-03-27T07:17:48.573Z,81.44
2019-03-27T07:21:03.009Z,81.21
2019-03-27T07:24:17.020Z,80.73
2019-03-27T07:27:31.081Z,80.36
2019-03-27T07:30:45.028Z,80.17
2019-03-27T07:33:59.139Z,79.97
2019-03-27T07:37:13.156Z,79.51
2019-03-27T07:40:27.171Z,78.76
2019-03-27T07:43:41.182Z,78.03
2019-03-27T07:46:55.284Z,77.70
2019-03-27T07:50:09.552Z,75.93
2019-03-27T07:53:23.559Z,73.90
2019-03-27T07:56:37.719Z,72.60
2019-03-27T07:59:52.029Z,71.64
2019-03-27T08:03:06.584Z,70.66
2019-03-27T08:06:20.919Z,69.55
2019-03-27T08:09:35.039Z,69.89
2019-03-27T08:12:49.141Z,69.64
2019-03-27T08:16:03.729Z,69.17
2019-03-27T08:19:17.703Z,69.42
2019-03-27T08:22:31.721Z,69.31
2019-03-27T08:25:46.451Z,69.04
2019-03-27T08:29:00.489Z,68.63
2019-03-27T08:32:15.214Z,68.55
2019-03-27T08:35:29.327Z,68.76
2019-03-27T08:38:43.425Z,68.70
2019-03-27T08:41:57.746Z,68.49
2019-03-27T08:45:12.269Z,68.90
2019-03-27T08:48:26.314Z,68.63
2019-03-27T08:51:40.332Z,67.60
2019-03-27T08:54:54.669Z,67.03
2019-03-27T08:58:08.944Z,67.12
2019-03-27T09:01:23.344Z,65.89
2019-03-27T09:04:37.360Z,65.14
2019-03-27T09:07:51.423Z,64.17
2019-03-27T09:11:05.967Z,63.59
2019-03-27T09:14:20.276Z,62.59
2019-03-27T09:17:34.488Z,62.78
2019-03-27T09:20:48.556Z,62.59
2019-03-27T09:24:03.116Z,62.44
2019-03-27T09:27:17.219Z,60.94
2019-03-27T09:30:31.231Z,59.25
2019-03-27T09:33:45.234Z,57.83
2019-03-27T09:37:00.414Z,57.05
2019-03-27T09:40:15.077Z,56.39
2019-03-27T09:43:29.078Z,56.61
2019-03-27T09:46:43.504Z,58.62
2019-03-27T09:49:57.524Z,60.15
2019-03-27T09:53:11.745Z,60.70
2019-03-27T09:56:26.681Z,59.76
2019-03-27T09:59:40.711Z,60.31
2019-03-27T10:02:57.176Z,60.02
2019-03-27T10:06:11.135Z,58.43
2019-03-27T10:09:25.147Z,58.35
2019-03-27T10:12:39.281Z,58.53
2019-03-27T10:15:53.743Z,57.44
2019-03-27T10:19:07.734Z,57.02
2019-03-27T10:22:21.748Z,56.54
2019-03-27T10:25:35.774Z,56.04
2019-03-27T10:28:49.804Z,56.06
2019-03-27T10:32:04.003Z,55.99
2019-03-27T10:35:18.343Z,54.20
2019-03-27T10:38:32.486Z,53.28
2019-03-27T10:41:46.699Z,54.08
2019-03-27T10:45:00.921Z,52.51
2019-03-27T10:48:14.939Z,49.01
2019-03-27T10:51:28.982Z,44.68
2019-03-27T10:54:43.094Z,42.34
2019-03-27T10:57:57.535Z,39.91
2019-03-27T11:01:11.954Z,37.77
2019-03-27T11:04:25.958Z,40.56
2019-03-27T11:07:40.324Z,43.64
2019-03-27T11:10:55.344Z,44.52
2019-03-27T11:14:09.652Z,45.70
2019-03-27T11:17:23.785Z,43.64
2019-03-27T11:20:38.048Z,43.85
2019-03-27T11:23:52.199Z,44.67
2019-03-27T11:27:06.303Z,45.00
2019-03-27T11:30:30.225Z,44.52
2019-03-27T11:33:44.268Z,44.91
2019-03-27T11:36:58.392Z,44.75
2019-03-27T11:40:12.714Z,44.43
2019-03-27T11:43:26.730Z,47.76
2019-03-27T11:46:40.724Z,48.26
2019-03-27T11:49:54.752Z,46.43
2019-03-27T11:53:09.051Z,46.44
2019-03-27T11:56:23.089Z,47.65
2019-03-27T11:59:37.072Z,46.72
2019-03-27T12:03:10.582Z,47.43
2019-03-27T12:06:24.805Z,47.44
2019-03-27T12:09:38.818Z,45.34
2019-03-27T12:12:53.233Z,45.83
2019-03-27T12:19:37.891Z,47.24
2019-03-27T12:22:57.635Z,46.45
2019-03-27T12:26:07.715Z,47.82
2019-03-27T12:29:21.840Z,45.71
2019-03-27T12:32:36.347Z,45.07
2019-03-27T12:35:50.638Z,44.60
2019-03-27T12:39:06.241Z,44.95
2019-03-27T12:42:20.596Z,43.55
2019-03-27T12:45:34.628Z,43.17
2019-03-27T12:48:48.769Z,44.09
2019-03-27T12:52:05.492Z,44.64
2019-03-27T12:55:19.270Z,41.83
2019-03-27T12:58:33.425Z,42.02
2019-03-27T13:01:47.829Z,41.94
2019-03-27T13:05:03.566Z,43.15
2019-03-27T13:08:17.848Z,44.22
2019-03-27T13:11:32.201Z,43.74
2019-03-27T13:14:46.636Z,43.60
2019-03-27T13:18:00.936Z,43.07
2019-03-27T13:21:25.772Z,42.40
2019-03-27T13:24:31.712Z,42.45
2019-03-27T13:27:47.484Z,41.88
2019-03-27T13:31:01.776Z,43.40
2019-03-27T13:34:16.770Z,42.96
2019-03-27T13:37:30.831Z,44.28
2019-03-27T13:40:44.951Z,43.59
2019-03-27T13:43:59.393Z,42.77
2019-03-27T13:47:13.644Z,43.76
2019-03-27T13:50:28.084Z,43.85
2019-03-27T13:53:42.217Z,43.56
2019-03-27T13:56:56.290Z,42.92
2019-03-27T14:00:13.320Z,42.27
2019-03-27T14:03:27.687Z,41.72
2019-03-27T14:06:44.623Z,41.14
2019-03-27T14:09:58.037Z,42.55
2019-03-27T14:13:12.193Z,40.61
2019-03-27T14:16:26.240Z,40.45
2019-03-27T14:19:40.284Z,42.00
2019-03-27T14:22:54.540Z,43.17
2019-03-27T14:26:08.837Z,42.51
2019-03-27T14:29:23.184Z,37.75
2019-03-27T14:32:37.695Z,36.34
2019-03-27T14:35:51.913Z,37.76
2019-03-27T14:39:06.828Z,38.63
2019-03-27T14:42:20.856Z,40.14
2019-03-27T14:45:35.660Z,41.65
2019-03-27T14:48:49.682Z,42.75
2019-03-27T14:52:08.343Z,44.74
2019-03-27T14:55:19.956Z,43.21
2019-03-27T14:58:34.384Z,45.75
2019-03-27T15:01:48.475Z,45.40
2019-03-27T15:05:03.499Z,45.42
2019-03-27T15:08:17.637Z,43.56
2019-03-27T15:11:31.679Z,44.66
2019-03-27T15:14:45.722Z,44.25
2019-03-27T15:18:00.028Z,44.00
2019-03-27T15:21:14.042Z,44.05
2019-03-27T15:24:28.076Z,44.22
2019-03-27T15:27:42.063Z,43.74
2019-03-27T15:30:56.356Z,44.20
2019-03-27T15:34:10.378Z,44.63
2019-03-27T15:37:24.477Z,44.28
2019-03-27T15:40:40.532Z,43.70
2019-03-27T15:43:54.692Z,43.73
2019-03-27T15:47:08.843Z,41.53
2019-03-27T15:50:22.870Z,39.51
2019-03-27T15:53:37.199Z,39.92
2019-03-27T15:56:51.330Z,39.00
2019-03-27T16:00:05.872Z,37.95
2019-03-27T16:03:20.212Z,37.40
2019-03-27T16:06:34.293Z,36.80
2019-03-27T16:09:48.728Z,37.95
2019-03-27T16:13:03.168Z,37.83
2019-03-27T16:16:17.428Z,36.50
2019-03-27T16:19:31.579Z,38.32
2019-03-27T16:22:51.010Z,38.59
2019-03-27T16:26:02.263Z,39.78
2019-03-27T16:29:16.259Z,40.45
2019-03-27T16:32:30.368Z,41.50
2019-03-27T16:35:44.748Z,42.31
2019-03-27T16:38:58.966Z,42.03
2019-03-27T16:42:13.012Z,42.19
2019-03-27T16:45:27.338Z,41.79
2019-03-27T16:48:41.828Z,42.07
2019-03-27T16:51:56.547Z,43.22
2019-03-27T16:55:10.996Z,42.63
2019-03-27T16:58:25.036Z,42.97
2019-03-27T17:01:39.260Z,43.43
2019-03-27T17:04:54.337Z,44.02
2019-03-27T17:08:08.484Z,44.12
2019-03-27T17:11:22.609Z,46.01
2019-03-27T17:14:36.661Z,48.75
2019-03-27T17:17:50.676Z,48.33
2019-03-27T17:21:04.921Z,49.76
2019-03-27T17:24:18.952Z,50.43
2019-03-27T17:27:33.246Z,51.27
2019-03-27T17:30:47.387Z,51.47
2019-03-27T17:34:01.541Z,52.20
2019-03-27T17:37:15.698Z,52.90
2019-03-27T17:40:29.830Z,54.14
2019-03-27T17:43:44.175Z,54.92
2019-03-27T17:46:58.520Z,56.20
2019-03-27T17:50:13.165Z,57.11
2019-03-27T17:53:31.944Z,57.48
2019-03-27T17:56:43.452Z,58.63
2019-03-27T17:59:57.579Z,58.75
2019-03-27T18:03:11.855Z,58.73
2019-03-27T18:06:26.099Z,58.88
2019-03-27T18:09:40.295Z,60.29
2019-03-27T18:12:54.397Z,61.10
2019-03-27T18:16:08.730Z,61.58
2019-03-27T18:19:23.042Z,62.09
2019-03-27T18:22:37.068Z,61.93
2019-03-27T18:25:51.108Z,62.52
2019-03-27T18:29:05.140Z,63.04
2019-03-27T18:32:19.164Z,62.89
2019-03-27T18:35:33.171Z,63.04
2019-03-27T18:38:47.247Z,63.86
2019-03-27T18:42:01.342Z,65.28
2019-03-27T18:45:15.445Z,66.45
2019-03-27T18:48:29.497Z,67.53
2019-03-27T18:51:43.569Z,67.88
2019-03-27T18:54:58.086Z,68.34
2019-03-27T18:58:12.105Z,68.39
2019-03-27T19:01:26.131Z,68.09
2019-03-27T19:04:40.146Z,67.95
2019-03-27T19:07:54.872Z,68.64
2019-03-27T19:11:09.000Z,69.25
2019-03-27T19:14:23.004Z,69.96
2019-03-27T19:17:37.142Z,70.50
2019-03-27T19:20:51.613Z,71.20
2019-03-27T19:24:14.850Z,71.74
2019-03-27T19:27:22.200Z,72.00
2019-03-27T19:30:36.289Z,71.56
2019-03-27T19:33:50.280Z,71.84
2019-03-27T19:37:04.404Z,71.73
2019-03-27T19:40:18.528Z,72.67
2019-03-27T19:43:32.578Z,72.98
2019-03-27T19:46:46.587Z,73.92
2019-03-27T19:50:00.612Z,74.19
2019-03-27T19:53:14.630Z,73.76
2019-03-27T19:56:28.794Z,74.48
2019-03-27T19:59:43.260Z,74.50
2019-03-27T20:02:57.384Z,73.78
2019-03-27T20:06:11.520Z,73.90
2019-03-27T20:09:25.536Z,74.54
2019-03-27T20:12:39.557Z,74.87
2019-03-27T20:15:53.941Z,75.41
2019-03-27T20:19:08.127Z,75.67
2019-03-27T20:22:22.258Z,75.59
2019-03-27T20:25:36.358Z,75.94
2019-03-27T20:28:50.386Z,76.24
2019-03-27T20:32:04.780Z,76.31
2019-03-27T20:35:18.909Z,76.20
2019-03-27T20:38:32.930Z,76.53
2019-03-27T20:41:47.192Z,77.18
2019-03-27T20:45:01.422Z,77.23
2019-03-27T20:48:15.551Z,77.54
2019-03-27T20:51:29.608Z,77.64
2019-03-27T20:54:54.427Z,78.05
2019-03-27T20:57:59.682Z,78.16
2019-03-27T21:01:13.859Z,78.32
2019-03-27T21:04:27.791Z,77.88
2019-03-27T21:07:42.089Z,78.59
2019-03-27T21:10:56.098Z,78.79
2019-03-27T21:14:10.221Z,78.84
2019-03-27T21:17:24.670Z,78.98
2019-03-27T21:20:38.763Z,79.21
2019-03-27T21:23:52.894Z,78.81
2019-03-27T21:27:06.904Z,79.19
2019-03-27T21:30:21.022Z,79.36
2019-03-27T21:33:35.036Z,79.54
2019-03-27T21:36:49.355Z,79.59
2019-03-27T21:40:04.496Z,79.58
2019-03-27T21:43:18.619Z,79.25
2019-03-27T21:46:32.654Z,79.43
2019-03-27T21:49:46.670Z,79.23
2019-03-27T21:53:01.267Z,79.57
2019-03-27T21:56:15.467Z,79.62
2019-03-27T21:59:29.487Z,79.63
2019-03-27T22:02:43.720Z,79.63
2019-03-27T22:05:57.835Z,80.12
2019-03-27T22:09:11.920Z,80.10
2019-03-27T22:12:26.235Z,80.05
2019-03-27T22:15:40.253Z,79.96
2019-03-27T22:18:54.500Z,80.11
2019-03-27T22:22:08.519Z,80.12
2019-03-27T22:25:34.958Z,80.32
2019-03-27T22:28:38.572Z,81.07
2019-03-27T22:31:52.602Z,80.98
2019-03-27T22:35:07.215Z,80.82
2019-03-27T22:38:21.556Z,81.02
2019-03-27T22:41:35.673Z,81.14
2019-03-27T22:44:49.934Z,81.15
2019-03-27T22:48:04.480Z,81.27
2019-03-27T22:51:18.743Z,81.74
2019-03-27T22:54:33.035Z,81.73
2019-03-27T22:57:47.382Z,81.70
2019-03-27T23:01:01.496Z,81.66
2019-03-27T23:04:16.187Z,81.60
2019-03-27T23:07:30.191Z,82.19
2019-03-27T23:10:44.492Z,82.29
2019-03-27T23:13:58.766Z,82.51
2019-03-27T23:17:13.181Z,82.02
2019-03-27T23:20:27.214Z,81.97
2019-03-27T23:23:41.256Z,82.05
2019-03-27T23:26:55.241Z,82.13
2019-03-27T23:30:09.702Z,82.12
2019-03-27T23:33:23.733Z,81.87
2019-03-27T23:36:37.735Z,81.96
2019-03-27T23:39:51.795Z,82.16
2019-03-27T23:43:06.018Z,82.00
2019-03-27T23:46:20.035Z,81.96
2019-03-27T23:49:34.028Z,81.99
2019-03-27T23:52:48.048Z,81.89
2019-03-27T23:56:02.078Z,82.14
2019-03-27T23:59:16.284Z,82.50
